sensor_id;sensor_type;location;lat;lon;timestamp;pressure;altitude;pressure_sealevel;temperature;humidity
9672;BME280;4874;43.568;27.824;2023-03-19T00:00:25;99567.63;;;6.99;100.00
9672;BME280;4874;43.568;27.824;2023-03-19T00:02:52;99565.00;;;6.87;100.00
9672;BME280;4874;43.568;27.824;2023-03-19T00:05:19;99565.09;;;6.98;100.00
9672;BME280;4874;43.568;27.824;2023-03-19T00:07:46;99559.16;;;6.94;100.00
9672;BME280;4874;43.568;27.824;2023-03-19T00:10:12;99563.72;;;6.92;100.00
9672;BME280;4874;43.568;27.824;2023-03-19T00:12:39;99556.00;;;7.02;100.00
9672;BME280;4874;43.568;27.824;2023-03-19T00:15:06;99555.78;;;6.92;100.00
9672;BME280;4874;43.568;27.824;2023-03-19T00:17:34;99540.72;;;6.82;100.00
9672;BME280;4874;43.568;27.824;2023-03-19T00:20:01;99553.38;;;6.89;100.00
9672;BME280;4874;43.568;27.824;2023-03-19T00:22:28;99554.63;;;7.09;100.00
9672;BME280;4874;43.568;27.824;2023-03-19T00:24:55;99570.41;;;6.85;100.00
9672;BME280;4874;43.568;27.824;2023-03-19T00:27:22;99546.41;;;7.01;100.00
9672;BME280;4874;43.568;27.824;2023-03-19T00:29:48;99550.53;;;6.80;100.00
9672;BME280;4874;43.568;27.824;2023-03-19T00:32:15;99543.66;;;6.77;100.00
9672;BME280;4874;43.568;27.824;2023-03-19T00:34:42;99545.16;;;6.81;100.00
9672;BME280;4874;43.568;27.824;2023-03-19T00:37:09;99544.81;;;6.98;100.00
9672;BME280;4874;43.568;27.824;2023-03-19T00:39:37;99537.53;;;6.89;100.00
9672;BME280;4874;43.568;27.824;2023-03-19T00:42:04;99538.03;;;7.07;100.00
9672;BME280;4874;43.568;27.824;2023-03-19T00:44:30;99531.50;;;7.00;100.00
9672;BME280;4874;43.568;27.824;2023-03-19T00:46:57;99538.41;;;6.90;100.00
9672;BME280;4874;43.568;27.824;2023-03-19T00:49:24;99535.47;;;6.82;100.00
9672;BME280;4874;43.568;27.824;2023-03-19T00:51:50;99539.59;;;6.73;100.00
9672;BME280;4874;43.568;27.824;2023-03-19T00:54:17;99537.03;;;6.84;100.00
9672;BME280;4874;43.568;27.824;2023-03-19T00:56:44;99534.09;;;6.76;100.00
9672;BME280;4874;43.568;27.824;2023-03-19T00:59:10;99543.22;;;7.08;100.00
9672;BME280;4874;43.568;27.824;2023-03-19T01:01:37;99533.84;;;6.92;100.00
9672;BME280;4874;43.568;27.824;2023-03-19T01:04:04;99544.94;;;6.97;100.00
9672;BME280;4874;43.568;27.824;2023-03-19T01:06:31;99544.53;;;6.78;100.00
9672;BME280;4874;43.568;27.824;2023-03-19T01:08:58;99545.88;;;6.96;100.00
9672;BME280;4874;43.568;27.824;2023-03-19T01:11:25;99540.72;;;6.82;100.00
9672;BME280;4874;43.568;27.824;2023-03-19T01:13:51;99533.78;;;6.68;100.00
9672;BME280;4874;43.568;27.824;2023-03-19T01:16:18;99541.56;;;6.82;100.00
9672;BME280;4874;43.568;27.824;2023-03-19T01:18:45;99542.31;;;6.59;100.00
9672;BME280;4874;43.568;27.824;2023-03-19T01:21:12;99538.41;;;6.77;100.00
9672;BME280;4874;43.568;27.824;2023-03-19T01:23:39;99535.34;;;6.58;100.00
9672;BME280;4874;43.568;27.824;2023-03-19T01:26:06;99534.06;;;6.64;100.00
9672;BME280;4874;43.568;27.824;2023-03-19T01:28:33;99542.81;;;6.89;100.00
9672;BME280;4874;43.568;27.824;2023-03-19T01:31:04;99534.59;;;6.81;100.00
9672;BME280;4874;43.568;27.824;2023-03-19T01:33:31;99538.41;;;6.77;100.00
9672;BME280;4874;43.568;27.824;2023-03-19T01:35:59;99528.59;;;6.79;100.00
9672;BME280;4874;43.568;27.824;2023-03-19T01:38:29;99538.09;;;6.82;100.00
9672;BME280;4874;43.568;27.824;2023-03-19T01:40:56;99523.19;;;6.81;100.00
9672;BME280;4874;43.568;27.824;2023-03-19T01:43:23;99546.13;;;6.80;100.00
9672;BME280;4874;43.568;27.824;2023-03-19T01:45:51;99547.78;;;6.94;100.00
9672;BME280;4874;43.568;27.824;2023-03-19T01:51:14;99551.34;;;7.05;100.00
9672;BME280;4874;43.568;27.824;2023-03-19T01:53:45;99560.13;;;6.93;100.00
9672;BME280;4874;43.568;27.824;2023-03-19T01:56:15;99531.63;;;6.98;100.00
9672;BME280;4874;43.568;27.824;2023-03-19T01:58:45;99554.41;;;6.99;100.00
9672;BME280;4874;43.568;27.824;2023-03-19T02:01:12;99556.47;;;6.83;100.00
9672;BME280;4874;43.568;27.824;2023-03-19T02:03:40;99541.56;;;6.95;100.00
9672;BME280;4874;43.568;27.824;2023-03-19T02:06:09;99554.75;;;6.95;100.00
9672;BME280;4874;43.568;27.824;2023-03-19T02:08:37;99525.13;;;6.66;100.00
9672;BME280;4874;43.568;27.824;2023-03-19T02:11:05;99555.38;;;6.98;100.00
9672;BME280;4874;43.568;27.824;2023-03-19T02:13:33;99545.03;;;6.83;100.00
9672;BME280;4874;43.568;27.824;2023-03-19T02:16:00;99548.88;;;6.66;100.00
9672;BME280;4874;43.568;27.824;2023-03-19T02:18:27;99551.19;;;6.83;100.00
9672;BME280;4874;43.568;27.824;2023-03-19T02:21:00;99546.84;;;6.82;100.00
9672;BME280;4874;43.568;27.824;2023-03-19T02:26:27;99540.53;;;6.60;100.00
9672;BME280;4874;43.568;27.824;2023-03-19T02:28:55;99559.31;;;6.80;100.00
9672;BME280;4874;43.568;27.824;2023-03-19T02:31:22;99556.75;;;6.91;100.00
9672;BME280;4874;43.568;27.824;2023-03-19T02:34:15;99556.75;;;6.91;100.00
9672;BME280;4874;43.568;27.824;2023-03-19T02:36:59;99560.34;;;6.90;100.00
9672;BME280;4874;43.568;27.824;2023-03-19T02:41:55;99534.28;;;6.48;100.00
9672;BME280;4874;43.568;27.824;2023-03-19T02:44:22;99568.91;;;6.94;100.00
9672;BME280;4874;43.568;27.824;2023-03-19T02:46:49;99577.97;;;6.77;100.00
9672;BME280;4874;43.568;27.824;2023-03-19T02:49:17;99579.66;;;6.91;100.00
9672;BME280;4874;43.568;27.824;2023-03-19T02:51:44;99580.59;;;6.77;100.00
9672;BME280;4874;43.568;27.824;2023-03-19T02:54:11;99578.38;;;6.59;100.00
9672;BME280;4874;43.568;27.824;2023-03-19T02:56:38;99587.06;;;6.98;100.00
9672;BME280;4874;43.568;27.824;2023-03-19T02:59:05;99576.69;;;6.70;100.00
9672;BME280;4874;43.568;27.824;2023-03-19T03:01:32;99575.13;;;6.68;100.00
9672;BME280;4874;43.568;27.824;2023-03-19T03:03:59;99527.03;;;6.64;100.00
9672;BME280;4874;43.568;27.824;2023-03-19T03:06:25;99551.59;;;6.90;100.00
9672;BME280;4874;43.568;27.824;2023-03-19T03:08:52;99576.19;;;6.65;100.00
9672;BME280;4874;43.568;27.824;2023-03-19T03:11:19;99577.03;;;6.66;100.00
9672;BME280;4874;43.568;27.824;2023-03-19T03:13:46;99582.72;;;6.72;100.00
9672;BME280;4874;43.568;27.824;2023-03-19T03:16:13;99595.72;;;6.88;100.00
9672;BME280;4874;43.568;27.824;2023-03-19T03:18:41;99595.06;;;6.84;100.00
9672;BME280;4874;43.568;27.824;2023-03-19T03:21:07;99595.09;;;6.97;100.00
9672;BME280;4874;43.568;27.824;2023-03-19T03:23:35;99598.56;;;6.72;100.00
9672;BME280;4874;43.568;27.824;2023-03-19T03:26:02;99593.94;;;6.88;100.00
9672;BME280;4874;43.568;27.824;2023-03-19T03:28:29;99596.13;;;6.94;100.00
9672;BME280;4874;43.568;27.824;2023-03-19T03:30:59;99600.75;;;6.91;100.00
9672;BME280;4874;43.568;27.824;2023-03-19T03:33:26;99562.66;;;6.82;100.00
9672;BME280;4874;43.568;27.824;2023-03-19T03:35:53;99596.22;;;7.18;100.00
9672;BME280;4874;43.568;27.824;2023-03-19T03:38:20;99597.94;;;6.94;100.00
9672;BME280;4874;43.568;27.824;2023-03-19T03:40:51;99597.59;;;6.98;100.00
9672;BME280;4874;43.568;27.824;2023-03-19T03:43:20;99600.59;;;6.94;100.00
9672;BME280;4874;43.568;27.824;2023-03-19T03:45:47;99604.97;;;7.18;100.00
9672;BME280;4874;43.568;27.824;2023-03-19T03:48:15;99609.03;;;6.99;100.00
9672;BME280;4874;43.568;27.824;2023-03-19T03:50:42;99601.06;;;7.11;100.00
9672;BME280;4874;43.568;27.824;2023-03-19T03:53:09;99566.69;;;6.63;100.00
9672;BME280;4874;43.568;27.824;2023-03-19T03:55:38;99605.84;;;6.81;100.00
9672;BME280;4874;43.568;27.824;2023-03-19T03:58:04;99607.31;;;6.73;100.00
9672;BME280;4874;43.568;27.824;2023-03-19T04:00:31;99614.16;;;6.75;100.00
9672;BME280;4874;43.568;27.824;2023-03-19T04:02:58;99614.91;;;6.77;100.00
9672;BME280;4874;43.568;27.824;2023-03-19T04:05:25;99621.75;;;6.67;100.00
9672;BME280;4874;43.568;27.824;2023-03-19T04:07:53;99624.50;;;6.66;100.00
9672;BME280;4874;43.568;27.824;2023-03-19T04:10:19;99633.91;;;6.70;100.00
9672;BME280;4874;43.568;27.824;2023-03-19T04:12:46;99625.47;;;6.77;100.00
9672;BME280;4874;43.568;27.824;2023-03-19T04:15:13;99617.75;;;6.62;100.00
9672;BME280;4874;43.568;27.824;2023-03-19T04:17:39;99620.91;;;6.67;100.00
9672;BME280;4874;43.568;27.824;2023-03-19T04:20:08;99620.63;;;6.71;100.00
9672;BME280;4874;43.568;27.824;2023-03-19T04:22:35;99622.41;;;6.71;100.00
9672;BME280;4874;43.568;27.824;2023-03-19T04:25:02;99624.84;;;6.61;100.00
9672;BME280;4874;43.568;27.824;2023-03-19T04:27:28;99626.81;;;6.70;100.00
9672;BME280;4874;43.568;27.824;2023-03-19T04:29:55;99617.75;;;6.74;100.00
9672;BME280;4874;43.568;27.824;2023-03-19T04:32:22;99623.69;;;6.78;100.00
9672;BME280;4874;43.568;27.824;2023-03-19T04:34:49;99616.63;;;6.78;100.00
9672;BME280;4874;43.568;27.824;2023-03-19T04:37:15;99624.72;;;6.63;100.00
9672;BME280;4874;43.568;27.824;2023-03-19T04:39:42;99620.00;;;6.80;100.00
9672;BME280;4874;43.568;27.824;2023-03-19T04:42:10;99625.47;;;6.65;100.00
9672;BME280;4874;43.568;27.824;2023-03-19T04:44:37;99627.47;;;6.74;100.00
9672;BME280;4874;43.568;27.824;2023-03-19T04:47:03;99634.66;;;6.72;100.00
9672;BME280;4874;43.568;27.824;2023-03-19T04:49:30;99617.75;;;6.62;100.00
9672;BME280;4874;43.568;27.824;2023-03-19T04:51:57;99611.94;;;6.57;100.00
9672;BME280;4874;43.568;27.824;2023-03-19T04:54:24;99633.06;;;6.69;100.00
9672;BME280;4874;43.568;27.824;2023-03-19T04:56:51;99621.13;;;6.51;100.00
9672;BME280;4874;43.568;27.824;2023-03-19T04:59:18;99628.94;;;6.65;100.00
9672;BME280;4874;43.568;27.824;2023-03-19T05:01:48;99628.00;;;6.79;100.00
9672;BME280;4874;43.568;27.824;2023-03-19T05:04:14;99633.06;;;6.69;100.00
9672;BME280;4874;43.568;27.824;2023-03-19T05:06:41;99632.22;;;6.56;100.00
9672;BME280;4874;43.568;27.824;2023-03-19T05:09:08;99615.63;;;6.54;100.00
9672;BME280;4874;43.568;27.824;2023-03-19T05:11:35;99623.13;;;6.60;100.00
9672;BME280;4874;43.568;27.824;2023-03-19T05:14:02;99608.25;;;6.59;100.00
9672;BME280;4874;43.568;27.824;2023-03-19T05:16:29;99633.91;;;6.57;100.00
9672;BME280;4874;43.568;27.824;2023-03-19T05:18:56;99629.69;;;6.67;100.00
9672;BME280;4874;43.568;27.824;2023-03-19T05:21:22;99630.41;;;6.57;100.00
9672;BME280;4874;43.568;27.824;2023-03-19T05:23:49;99637.81;;;6.89;100.00
9672;BME280;4874;43.568;27.824;2023-03-19T05:26:18;99619.44;;;6.50;100.00
9672;BME280;4874;43.568;27.824;2023-03-19T05:28:44;99647.44;;;6.78;100.00
9672;BME280;4874;43.568;27.824;2023-03-19T05:31:11;99641.81;;;6.82;100.00
9672;BME280;4874;43.568;27.824;2023-03-19T05:33:38;99638.56;;;6.91;100.00
9672;BME280;4874;43.568;27.824;2023-03-19T05:36:05;99642.69;;;6.83;100.00
9672;BME280;4874;43.568;27.824;2023-03-19T05:38:33;99636.13;;;6.76;100.00
9672;BME280;4874;43.568;27.824;2023-03-19T05:41:04;99638.47;;;6.80;100.00
9672;BME280;4874;43.568;27.824;2023-03-19T05:43:30;99633.28;;;6.79;100.00
9672;BME280;4874;43.568;27.824;2023-03-19T05:45:58;99636.25;;;6.87;100.00
9672;BME280;4874;43.568;27.824;2023-03-19T05:48:24;99638.66;;;6.77;100.00
9672;BME280;4874;43.568;27.824;2023-03-19T05:50:51;99637.69;;;6.66;100.00
9672;BME280;4874;43.568;27.824;2023-03-19T05:53:19;99594.66;;;6.53;100.00
9672;BME280;4874;43.568;27.824;2023-03-19T05:55:46;99628.31;;;6.99;100.00
9672;BME280;4874;43.568;27.824;2023-03-19T05:58:13;99623.78;;;7.01;100.00
9672;BME280;4874;43.568;27.824;2023-03-19T06:00:40;99622.84;;;7.02;100.00
9672;BME280;4874;43.568;27.824;2023-03-19T06:03:07;99620.22;;;7.02;100.00
9672;BME280;4874;43.568;27.824;2023-03-19T06:05:34;99625.16;;;6.94;100.00
9672;BME280;4874;43.568;27.824;2023-03-19T06:08:01;99626.31;;;7.03;100.00
9672;BME280;4874;43.568;27.824;2023-03-19T06:10:28;99627.16;;;7.03;100.00
9672;BME280;4874;43.568;27.824;2023-03-19T06:12:54;99620.72;;;7.20;100.00
9672;BME280;4874;43.568;27.824;2023-03-19T06:15:21;99612.47;;;7.25;100.00
9672;BME280;4874;43.568;27.824;2023-03-19T06:17:48;99628.97;;;7.28;100.00
9672;BME280;4874;43.568;27.824;2023-03-19T06:20:14;99629.69;;;7.30;100.00
9672;BME280;4874;43.568;27.824;2023-03-19T06:22:41;99607.16;;;7.37;100.00
9672;BME280;4874;43.568;27.824;2023-03-19T06:25:09;99621.72;;;7.91;100.00
9672;BME280;4874;43.568;27.824;2023-03-19T06:27:36;99623.34;;;8.05;100.00
9672;BME280;4874;43.568;27.824;2023-03-19T06:30:03;99622.84;;;7.76;100.00
9672;BME280;4874;43.568;27.824;2023-03-19T06:32:30;99600.00;;;7.63;100.00
9672;BME280;4874;43.568;27.824;2023-03-19T06:34:58;99593.81;;;7.87;100.00
9672;BME280;4874;43.568;27.824;2023-03-19T06:37:24;99610.50;;;7.88;100.00
9672;BME280;4874;43.568;27.824;2023-03-19T06:39:52;99627.22;;;7.88;100.00
9672;BME280;4874;43.568;27.824;2023-03-19T06:42:20;99584.47;;;7.22;100.00
9672;BME280;4874;43.568;27.824;2023-03-19T06:44:47;99617.56;;;7.64;100.00
9672;BME280;4874;43.568;27.824;2023-03-19T06:47:17;99627.03;;;7.79;100.00
9672;BME280;4874;43.568;27.824;2023-03-19T06:49:44;99634.59;;;7.96;100.00
9672;BME280;4874;43.568;27.824;2023-03-19T06:52:11;99635.63;;;7.70;100.00
9672;BME280;4874;43.568;27.824;2023-03-19T06:54:38;99640.13;;;7.80;100.00
9672;BME280;4874;43.568;27.824;2023-03-19T06:57:05;99641.25;;;7.89;100.00
9672;BME280;4874;43.568;27.824;2023-03-19T06:59:31;99639.13;;;7.94;100.00
9672;BME280;4874;43.568;27.824;2023-03-19T07:01:58;99639.75;;;7.97;100.00
9672;BME280;4874;43.568;27.824;2023-03-19T07:04:24;99633.84;;;7.94;100.00
9672;BME280;4874;43.568;27.824;2023-03-19T07:06:52;99606.91;;;7.89;100.00
9672;BME280;4874;43.568;27.824;2023-03-19T07:09:19;99636.50;;;7.94;100.00
9672;BME280;4874;43.568;27.824;2023-03-19T07:11:46;99646.81;;;7.73;100.00
9672;BME280;4874;43.568;27.824;2023-03-19T07:14:12;99616.16;;;7.47;100.00
9672;BME280;4874;43.568;27.824;2023-03-19T07:16:39;99631.56;;;7.77;100.00
9672;BME280;4874;43.568;27.824;2023-03-19T07:19:06;99652.81;;;7.88;100.00
9672;BME280;4874;43.568;27.824;2023-03-19T07:21:33;99654.34;;;7.67;100.00
9672;BME280;4874;43.568;27.824;2023-03-19T07:23:59;99563.59;;;7.19;100.00
9672;BME280;4874;43.568;27.824;2023-03-19T07:26:26;99658.25;;;7.97;100.00
9672;BME280;4874;43.568;27.824;2023-03-19T07:28:53;99654.34;;;10.28;100.00
9672;BME280;4874;43.568;27.824;2023-03-19T07:31:19;99656.59;;;8.20;100.00
9672;BME280;4874;43.568;27.824;2023-03-19T07:33:46;99655.47;;;7.75;100.00
9672;BME280;4874;43.568;27.824;2023-03-19T07:36:13;99661.78;;;7.85;100.00
9672;BME280;4874;43.568;27.824;2023-03-19T07:38:40;99666.00;;;7.52;100.00
9672;BME280;4874;43.568;27.824;2023-03-19T07:41:06;99664.94;;;7.90;100.00
9672;BME280;4874;43.568;27.824;2023-03-19T07:43:33;99665.81;;;7.78;100.00
9672;BME280;4874;43.568;27.824;2023-03-19T07:46:00;99661.75;;;7.98;100.00
9672;BME280;4874;43.568;27.824;2023-03-19T07:48:26;99656.25;;;8.01;100.00
9672;BME280;4874;43.568;27.824;2023-03-19T07:50:53;99656.88;;;8.04;100.00
9672;BME280;4874;43.568;27.824;2023-03-19T07:53:20;99662.22;;;8.15;100.00
9672;BME280;4874;43.568;27.824;2023-03-19T07:55:47;99668.41;;;8.03;100.00
9672;BME280;4874;43.568;27.824;2023-03-19T07:58:14;99667.81;;;7.87;100.00
9672;BME280;4874;43.568;27.824;2023-03-19T08:00:42;99672.25;;;7.87;100.00
9672;BME280;4874;43.568;27.824;2023-03-19T08:03:10;99681.59;;;7.80;100.00
9672;BME280;4874;43.568;27.824;2023-03-19T08:05:36;99673.72;;;7.91;100.00
9672;BME280;4874;43.568;27.824;2023-03-19T08:08:04;99669.06;;;8.18;100.00
9672;BME280;4874;43.568;27.824;2023-03-19T08:10:31;99670.06;;;8.41;100.00
9672;BME280;4874;43.568;27.824;2023-03-19T08:13:01;99669.31;;;7.79;100.00
9672;BME280;4874;43.568;27.824;2023-03-19T08:15:30;99676.09;;;7.83;100.00
9672;BME280;4874;43.568;27.824;2023-03-19T08:18:00;99676.19;;;7.81;100.00
9672;BME280;4874;43.568;27.824;2023-03-19T08:20:27;99682.63;;;7.90;100.00
9672;BME280;4874;43.568;27.824;2023-03-19T08:22:54;99657.72;;;7.56;100.00
9672;BME280;4874;43.568;27.824;2023-03-19T08:25:22;99675.50;;;7.90;100.00
9672;BME280;4874;43.568;27.824;2023-03-19T08:27:49;99678.88;;;8.05;100.00
9672;BME280;4874;43.568;27.824;2023-03-19T08:30:16;99682.06;;;8.21;100.00
9672;BME280;4874;43.568;27.824;2023-03-19T08:32:43;99682.53;;;8.15;100.00
9672;BME280;4874;43.568;27.824;2023-03-19T08:35:10;99682.28;;;8.30;100.00
9672;BME280;4874;43.568;27.824;2023-03-19T08:37:37;99644.88;;;8.11;100.00
9672;BME280;4874;43.568;27.824;2023-03-19T08:40:03;99671.66;;;8.43;100.00
9672;BME280;4874;43.568;27.824;2023-03-19T08:42:31;99674.91;;;8.47;100.00
9672;BME280;4874;43.568;27.824;2023-03-19T08:44:57;99667.97;;;8.33;100.00
9672;BME280;4874;43.568;27.824;2023-03-19T08:47:24;99643.91;;;8.25;100.00
9672;BME280;4874;43.568;27.824;2023-03-19T08:49:51;99695.28;;;8.21;100.00
9672;BME280;4874;43.568;27.824;2023-03-19T08:52:19;99674.19;;;8.08;100.00
9672;BME280;4874;43.568;27.824;2023-03-19T08:54:47;99656.19;;;8.13;100.00
9672;BME280;4874;43.568;27.824;2023-03-19T08:57:20;99647.53;;;8.35;100.00
9672;BME280;4874;43.568;27.824;2023-03-19T08:59:47;99666.75;;;8.26;100.00
9672;BME280;4874;43.568;27.824;2023-03-19T09:02:14;99653.31;;;8.29;100.00
9672;BME280;4874;43.568;27.824;2023-03-19T09:04:42;99656.47;;;8.45;100.00
9672;BME280;4874;43.568;27.824;2023-03-19T09:07:09;99573.13;;;7.81;100.00
9672;BME280;4874;43.568;27.824;2023-03-19T09:09:42;99652.41;;;8.41;100.00
9672;BME280;4874;43.568;27.824;2023-03-19T09:12:11;99654.06;;;8.42;100.00
9672;BME280;4874;43.568;27.824;2023-03-19T09:14:39;99658.94;;;8.94;100.00
9672;BME280;4874;43.568;27.824;2023-03-19T09:17:06;99663.56;;;8.68;100.00
9672;BME280;4874;43.568;27.824;2023-03-19T09:19:32;99646.03;;;8.44;100.00
9672;BME280;4874;43.568;27.824;2023-03-19T09:21:59;99657.34;;;8.46;100.00
9672;BME280;4874;43.568;27.824;2023-03-19T09:24:26;99645.91;;;8.45;100.00
9672;BME280;4874;43.568;27.824;2023-03-19T09:26:53;99655.88;;;8.42;100.00
9672;BME280;4874;43.568;27.824;2023-03-19T09:29:20;99665.75;;;8.40;100.00
9672;BME280;4874;43.568;27.824;2023-03-19T09:31:47;99634.31;;;8.11;100.00
9672;BME280;4874;43.568;27.824;2023-03-19T09:34:13;99652.63;;;8.38;100.00
9672;BME280;4874;43.568;27.824;2023-03-19T09:36:40;99574.09;;;8.15;100.00
9672;BME280;4874;43.568;27.824;2023-03-19T09:39:07;99660.91;;;8.68;100.00
9672;BME280;4874;43.568;27.824;2023-03-19T09:41:53;99653.41;;;8.51;100.00
9672;BME280;4874;43.568;27.824;2023-03-19T09:47:28;99651.25;;;8.56;100.00
9672;BME280;4874;43.568;27.824;2023-03-19T09:50:10;99645.03;;;8.68;100.00
9672;BME280;4874;43.568;27.824;2023-03-19T09:52:45;99642.06;;;8.84;100.00
9672;BME280;4874;43.568;27.824;2023-03-19T09:57:59;99631.97;;;8.89;100.00
9672;BME280;4874;43.568;27.824;2023-03-19T10:00:35;99639.59;;;9.04;100.00
9672;BME280;4874;43.568;27.824;2023-03-19T10:16:20;99626.44;;;8.92;100.00
9672;BME280;4874;43.568;27.824;2023-03-19T10:18:49;99621.06;;;9.26;100.00
9672;BME280;4874;43.568;27.824;2023-03-19T10:21:26;99606.94;;;9.04;100.00
9672;BME280;4874;43.568;27.824;2023-03-19T10:24:05;99618.88;;;9.09;100.00
9672;BME280;4874;43.568;27.824;2023-03-19T10:26:34;99616.81;;;9.02;100.00
9672;BME280;4874;43.568;27.824;2023-03-19T10:29:08;99606.97;;;9.26;100.00
9672;BME280;4874;43.568;27.824;2023-03-19T10:34:33;99609.00;;;9.56;100.00
9672;BME280;4874;43.568;27.824;2023-03-19T10:37:05;99606.13;;;9.47;100.00
9672;BME280;4874;43.568;27.824;2023-03-19T10:39:37;99602.63;;;9.47;100.00
9672;BME280;4874;43.568;27.824;2023-03-19T10:44:59;99583.63;;;9.20;100.00
9672;BME280;4874;43.568;27.824;2023-03-19T10:47:28;99594.28;;;9.51;100.00
9672;BME280;4874;43.568;27.824;2023-03-19T10:50:02;99587.78;;;9.67;100.00
9672;BME280;4874;43.568;27.824;2023-03-19T10:52:34;99588.16;;;9.40;100.00
9672;BME280;4874;43.568;27.824;2023-03-19T10:55:24;99589.63;;;9.44;100.00
9672;BME280;4874;43.568;27.824;2023-03-19T10:58:00;99563.84;;;9.46;100.00
9672;BME280;4874;43.568;27.824;2023-03-19T11:00:29;99605.75;;;9.63;100.00
9672;BME280;4874;43.568;27.824;2023-03-19T11:02:58;99572.56;;;9.69;100.00
9672;BME280;4874;43.568;27.824;2023-03-19T11:05:28;99548.69;;;9.80;100.00
9672;BME280;4874;43.568;27.824;2023-03-19T11:08:12;99553.34;;;9.98;100.00
9672;BME280;4874;43.568;27.824;2023-03-19T11:10:59;99565.81;;;9.76;100.00
9672;BME280;4874;43.568;27.824;2023-03-19T11:13:26;99565.19;;;9.83;100.00
9672;BME280;4874;43.568;27.824;2023-03-19T11:15:56;99556.66;;;9.80;100.00
9672;BME280;4874;43.568;27.824;2023-03-19T11:18:30;99556.59;;;9.91;100.00
9672;BME280;4874;43.568;27.824;2023-03-19T11:20:59;99568.84;;;9.60;100.00
9672;BME280;4874;43.568;27.824;2023-03-19T11:23:29;99556.81;;;9.67;100.00
9672;BME280;4874;43.568;27.824;2023-03-19T11:25:59;99481.69;;;9.46;100.00
9672;BME280;4874;43.568;27.824;2023-03-19T11:28:30;99553.94;;;10.13;100.00
9672;BME280;4874;43.568;27.824;2023-03-19T11:31:23;99518.78;;;9.89;100.00
9672;BME280;4874;43.568;27.824;2023-03-19T11:42:31;99542.94;;;9.75;100.00
9672;BME280;4874;43.568;27.824;2023-03-19T11:50:25;99525.91;;;10.40;100.00
9672;BME280;4874;43.568;27.824;2023-03-19T12:09:55;99523.13;;;10.62;100.00
9672;BME280;4874;43.568;27.824;2023-03-19T12:12:34;99513.28;;;10.53;100.00
9672;BME280;4874;43.568;27.824;2023-03-19T12:15:26;99505.75;;;10.79;100.00
9672;BME280;4874;43.568;27.824;2023-03-19T12:18:09;99510.97;;;10.69;100.00
9672;BME280;4874;43.568;27.824;2023-03-19T12:21:04;99518.22;;;10.88;100.00
9672;BME280;4874;43.568;27.824;2023-03-19T12:30:00;99495.69;;;10.83;100.00
9672;BME280;4874;43.568;27.824;2023-03-19T12:32:12;99501.81;;;11.13;100.00
9672;BME280;4874;43.568;27.824;2023-03-19T12:34:49;99502.19;;;10.69;100.00
9672;BME280;4874;43.568;27.824;2023-03-19T12:37:29;99484.78;;;10.76;100.00
9672;BME280;4874;43.568;27.824;2023-03-19T12:42:38;99497.44;;;11.03;100.00
9672;BME280;4874;43.568;27.824;2023-03-19T12:45:30;99500.31;;;10.90;100.00
9672;BME280;4874;43.568;27.824;2023-03-19T12:48:13;99467.28;;;11.13;100.00
9672;BME280;4874;43.568;27.824;2023-03-19T12:50:46;99488.09;;;11.08;100.00
9672;BME280;4874;43.568;27.824;2023-03-19T12:53:26;99494.06;;;11.40;100.00
9672;BME280;4874;43.568;27.824;2023-03-19T12:55:57;99492.56;;;11.57;100.00
9672;BME280;4874;43.568;27.824;2023-03-19T13:01:17;99510.13;;;11.29;100.00
9672;BME280;4874;43.568;27.824;2023-03-19T13:03:54;99498.06;;;11.74;100.00
9672;BME280;4874;43.568;27.824;2023-03-19T13:09:37;99483.94;;;11.83;100.00
9672;BME280;4874;43.568;27.824;2023-03-19T13:12:15;99491.41;;;11.40;100.00
9672;BME280;4874;43.568;27.824;2023-03-19T13:17:27;99476.63;;;11.57;100.00
9672;BME280;4874;43.568;27.824;2023-03-19T13:19:57;99485.63;;;11.65;100.00
9672;BME280;4874;43.568;27.824;2023-03-19T13:22:35;99479.63;;;11.82;100.00
9672;BME280;4874;43.568;27.824;2023-03-19T13:25:05;99427.22;;;11.64;100.00
9672;BME280;4874;43.568;27.824;2023-03-19T13:27:34;99462.94;;;11.71;100.00
9672;BME280;4874;43.568;27.824;2023-03-19T13:30:15;99471.69;;;12.38;100.00
9672;BME280;4874;43.568;27.824;2023-03-19T13:33:12;99426.50;;;12.00;100.00
9672;BME280;4874;43.568;27.824;2023-03-19T13:35:38;99427.81;;;11.77;100.00
9672;BME280;4874;43.568;27.824;2023-03-19T13:48:48;99441.25;;;11.75;100.00
9672;BME280;4874;43.568;27.824;2023-03-19T13:59:38;99426.13;;;11.86;100.00
9672;BME280;4874;43.568;27.824;2023-03-19T14:07:45;99435.59;;;11.59;100.00
9672;BME280;4874;43.568;27.824;2023-03-19T14:10:25;99413.13;;;11.05;100.00
9672;BME280;4874;43.568;27.824;2023-03-19T14:13:01;99429.78;;;10.67;100.00
9672;BME280;4874;43.568;27.824;2023-03-19T14:15:28;99395.69;;;10.62;100.00
9672;BME280;4874;43.568;27.824;2023-03-19T14:18:01;99399.22;;;10.73;100.00
9672;BME280;4874;43.568;27.824;2023-03-19T14:20:31;99388.81;;;11.09;100.00
9672;BME280;4874;43.568;27.824;2023-03-19T14:26:04;99422.00;;;11.43;100.00
9672;BME280;4874;43.568;27.824;2023-03-19T14:28:48;99418.91;;;11.38;100.00
9672;BME280;4874;43.568;27.824;2023-03-19T14:31:41;99405.09;;;11.54;100.00
9672;BME280;4874;43.568;27.824;2023-03-19T14:36:44;99412.22;;;11.63;100.00
9672;BME280;4874;43.568;27.824;2023-03-19T14:39:46;99416.16;;;11.97;100.00
9672;BME280;4874;43.568;27.824;2023-03-19T14:42:26;99416.88;;;11.99;100.00
9672;BME280;4874;43.568;27.824;2023-03-19T14:55:51;99420.50;;;11.89;100.00
9672;BME280;4874;43.568;27.824;2023-03-19T14:58:19;99411.53;;;11.61;100.00
9672;BME280;4874;43.568;27.824;2023-03-19T15:00:52;99413.91;;;11.54;100.00
9672;BME280;4874;43.568;27.824;2023-03-19T15:05:57;99414.50;;;11.67;100.00
9672;BME280;4874;43.568;27.824;2023-03-19T15:08:25;99419.91;;;11.37;100.00
9672;BME280;4874;43.568;27.824;2023-03-19T15:19:08;99422.78;;;10.36;100.00
9672;BME280;4874;43.568;27.824;2023-03-19T15:21:39;99408.16;;;10.41;100.00
9672;BME280;4874;43.568;27.824;2023-03-19T15:24:13;99420.50;;;10.52;100.00
9672;BME280;4874;43.568;27.824;2023-03-19T15:26:40;99402.31;;;10.17;100.00
9672;BME280;4874;43.568;27.824;2023-03-19T15:29:07;99423.41;;;10.49;100.00
9672;BME280;4874;43.568;27.824;2023-03-19T15:31:46;99418.75;;;10.72;100.00
9672;BME280;4874;43.568;27.824;2023-03-19T15:34:27;99421.50;;;10.91;100.00